This is the latest recevied weather packets stored in our database for station/object KK7RJD. If no packets are shown the sender has not sent any weather packets the latest 10 day(s).
| Time | Temp. | Humidity | Pressure | Rain* | Wind** | Luminosity | Snow |
|---|---|---|---|---|---|---|---|
| 1777492379 | 10.56° C | 43% | 1020.8 hPa | 0 mm | - | 320 W/m² | - |
| 1777492076 | 10.56° C | 46% | 1020.8 hPa | 0 mm | - | 276 W/m² | - |
| 1777491773 | 10.56° C | 44% | 1021 hPa | 0 mm | - | 359 W/m² | - |
| 1777491470 | 10° C | 47% | 1020.8 hPa | 0 mm | - | 256 W/m² | - |
| 1777491167 | 10° C | 45% | 1020.9 hPa | 0 mm | - | 247 W/m² | - |
| 1777490863 | 10.56° C | 44% | 1020.9 hPa | 0 mm | - | 279 W/m² | - |
| 1777490559 | 10.56° C | 45% | 1020.9 hPa | 0 mm | - | 573 W/m² | - |
| 1777490255 | 11.11° C | 44% | 1020.8 hPa | 0 mm | - | 1101 W/m² | - |
| 1777489953 | 11.67° C | 40% | 1021 hPa | 0 mm | - | 403 W/m² | - |
| 1777489651 | 11.67° C | 40% | 1020.9 hPa | 0 mm | - | 533 W/m² | - |
| 1777489347 | 11.11° C | 39% | 1020.8 hPa | 0 mm | - | 1000 W/m² | - |
| 1777489044 | 11.67° C | 39% | 1020.9 hPa | 0 mm | - | 515 W/m² | - |
| 1777488741 | 11.11° C | 42% | 1020.8 hPa | 0 mm | - | 982 W/m² | - |
| 1777488438 | 11.11° C | 43% | 1020.9 hPa | 0 mm | - | 943 W/m² | - |
| 1777488137 | 11.11° C | 43% | 1020.9 hPa | 0 mm | - | 944 W/m² | - |
| 1777487835 | 10.56° C | 45% | 1020.9 hPa | 0 mm | - | 931 W/m² | - |
| 1777487532 | 10° C | 49% | 1021 hPa | 0 mm | - | 914 W/m² | - |
| 1777487229 | 10.56° C | 46% | 1020.9 hPa | 0 mm | - | 317 W/m² | - |
| 1777486925 | 10.56° C | 50% | 1020.8 hPa | 0 mm | - | 880 W/m² | - |
| 1777486622 | 9.44° C | 52% | 1020.8 hPa | 0 mm | - | 725 W/m² | - |
| 1777486320 | 8.89° C | 57% | 1020.8 hPa | 0 mm | - | 702 W/m² | - |
| 1777486017 | 8.89° C | 58% | 1020.8 hPa | 0 mm | - | 335 W/m² | - |
| 1777485714 | 10° C | 51% | 1020.8 hPa | 0 mm | - | 266 W/m² | - |
| 1777485409 | 10° C | 48% | 1020.7 hPa | 0 mm | - | 203 W/m² | - |
| 1777485105 | 10° C | 48% | 1020.6 hPa | 0 mm | - | 694 W/m² | - |
* Rain latest hour (hover to see other rain measurements)
** Current wind speed in m/s (hover to see current wind gust speed)